createdAt,value
2022-12-23T00:01:14.008Z,93.79
2022-12-23T00:03:15.419Z,93.41
2022-12-23T00:05:17.654Z,93.99
2022-12-23T00:07:19.017Z,93.73
2022-12-23T00:09:20.438Z,93.47
2022-12-23T00:11:21.829Z,93.28
2022-12-23T00:13:41.355Z,93.46
2022-12-23T00:15:42.821Z,93.77
2022-12-23T00:17:45.655Z,93.68
2022-12-23T00:19:47.009Z,93.52
2022-12-23T00:21:48.582Z,93.59
2022-12-23T00:23:51.564Z,93.27
2022-12-23T00:25:53.364Z,93.01
2022-12-23T00:28:03.697Z,93.16
2022-12-23T00:30:07.373Z,93.48
2022-12-23T00:32:08.809Z,93.74
2022-12-23T00:34:11.037Z,93.89
2022-12-23T00:36:12.700Z,93.40
2022-12-23T00:38:14.236Z,93.13
2022-12-23T00:40:34.832Z,93.63
2022-12-23T00:42:54.218Z,93.68
2022-12-23T00:45:15.304Z,93.58
2022-12-23T00:47:36.664Z,93.32
2022-12-23T00:49:43.742Z,93.79
2022-12-23T00:51:45.216Z,93.28
2022-12-23T00:53:46.626Z,93.08
2022-12-23T00:55:48.678Z,93.48
2022-12-23T00:57:50.162Z,93.19
2022-12-23T00:59:51.549Z,93.04
2022-12-23T01:02:11.436Z,93.65
2022-12-23T01:04:33.524Z,93.36
2022-12-23T01:06:34.888Z,92.95
2022-12-23T01:08:36.366Z,92.88
2022-12-23T01:10:39.832Z,92.97
2022-12-23T01:12:41.387Z,93.19
2022-12-23T01:14:42.787Z,92.63
2022-12-23T01:16:44.514Z,92.92
2022-12-23T01:18:45.984Z,92.75
2022-12-23T01:20:47.365Z,92.76
2022-12-23T01:22:48.760Z,92.71
2022-12-23T01:24:50.240Z,92.69
2022-12-23T01:26:51.578Z,93.38
2022-12-23T01:28:55.592Z,93.02
2022-12-23T01:30:57.724Z,92.96
2022-12-23T01:32:59.125Z,93.25
2022-12-23T01:35:00.544Z,93.65
2022-12-23T01:37:02.005Z,93.09
2022-12-23T01:39:03.491Z,93.69
2022-12-23T01:41:05.359Z,93.17
2022-12-23T01:43:06.875Z,93.55
2022-12-23T01:45:20.400Z,93.98
2022-12-23T01:47:33.966Z,94.25
2022-12-23T01:49:35.605Z,94.11
2022-12-23T01:51:37.023Z,94.06
2022-12-23T01:53:43.444Z,94.12
2022-12-23T01:55:47.443Z,94.52
2022-12-23T01:57:49.270Z,94.67
2022-12-23T02:00:09.405Z,93.99
2022-12-23T02:02:29.196Z,94.03
2022-12-23T02:04:30.653Z,94.16
2022-12-23T02:06:56.967Z,94.39
2022-12-23T02:09:16.797Z,94.42
2022-12-23T02:11:30.448Z,94.28
2022-12-23T02:14:10.234Z,94.22
2022-12-23T02:16:17.351Z,94.04
2022-12-23T02:18:27.668Z,94.28
2022-12-23T02:20:53.504Z,94.51
2022-12-23T02:23:14.529Z,94.87
2022-12-23T02:26:06.841Z,94.20
2022-12-23T02:28:30.223Z,94.62
2022-12-23T02:30:45.790Z,94.78
2022-12-23T02:33:36.134Z,94.77
2022-12-23T02:35:43.538Z,94.63
2022-12-23T02:38:09.355Z,94.35
2022-12-23T02:40:19.708Z,94.83
2022-12-23T02:42:25.804Z,94.87
2022-12-23T02:44:32.391Z,94.54
2022-12-23T02:46:45.001Z,94.86
2022-12-23T02:48:46.345Z,94.52
2022-12-23T02:50:48.839Z,94.57
2022-12-23T02:52:52.252Z,94.57
2022-12-23T02:54:59.955Z,94.14
2022-12-23T02:57:04.665Z,94.17
2022-12-23T02:59:28.693Z,93.95
2022-12-23T03:01:32.237Z,93.86
2022-12-23T03:03:35.516Z,94.14
2022-12-23T03:05:42.469Z,93.73
2022-12-23T03:07:43.915Z,93.85
2022-12-23T03:09:54.825Z,93.64
2022-12-23T03:12:17.197Z,93.82
2022-12-23T03:15:02.372Z,93.90
2022-12-23T03:17:09.960Z,93.72
2022-12-23T03:19:14.283Z,93.86
2022-12-23T03:21:30.803Z,94.10
2022-12-23T03:23:43.988Z,93.43
2022-12-23T03:26:00.658Z,93.74
2022-12-23T03:28:17.749Z,94.26
2022-12-23T03:30:20.736Z,94.23
2022-12-23T03:32:24.513Z,94.10
2022-12-23T03:34:30.085Z,94.70
2022-12-23T03:36:36.738Z,94.06
2022-12-23T03:38:40.385Z,94.21
2022-12-23T03:40:46.751Z,94.30
2022-12-23T03:42:57.938Z,94.46
2022-12-23T03:45:37.057Z,94.13
2022-12-23T03:47:29.770Z,94.82
2022-12-23T03:49:37.282Z,94.16
2022-12-23T03:51:46.553Z,94.35
2022-12-23T03:54:01.126Z,94.55
2022-12-23T03:56:07.714Z,94.43
2022-12-23T03:58:33.988Z,94.16
2022-12-23T04:00:42.803Z,94.57
2022-12-23T04:02:56.270Z,94.15
2022-12-23T04:05:27.310Z,94.55
2022-12-23T04:07:36.885Z,94.61
2022-12-23T04:09:39.469Z,94.24
2022-12-23T04:11:41.314Z,94.70
2022-12-23T04:13:42.874Z,94.43
2022-12-23T04:15:44.930Z,94.31
2022-12-23T04:17:46.510Z,94.58
2022-12-23T04:19:47.959Z,94.00
2022-12-23T04:21:49.376Z,94.05
2022-12-23T04:23:50.751Z,94.31
2022-12-23T04:25:52.173Z,94.66
2022-12-23T04:27:53.561Z,94.12
2022-12-23T04:29:54.927Z,93.98
2022-12-23T04:31:56.438Z,93.96
2022-12-23T04:33:57.900Z,94.31
2022-12-23T04:36:00.460Z,94.00
2022-12-23T04:38:01.878Z,94.02
2022-12-23T04:40:04.888Z,93.99
2022-12-23T04:42:06.321Z,94.06
2022-12-23T04:44:07.837Z,94.36
2022-12-23T04:46:09.286Z,94.14
2022-12-23T04:48:10.802Z,93.89
2022-12-23T04:50:16.564Z,93.95
2022-12-23T04:52:17.951Z,94.15
2022-12-23T04:54:19.396Z,94.49
2022-12-23T04:56:20.813Z,94.51
2022-12-23T04:58:24.086Z,94.40
2022-12-23T05:00:25.638Z,94.18
2022-12-23T05:02:27.164Z,93.91
2022-12-23T05:04:28.796Z,94.45
2022-12-23T05:06:30.201Z,94.56
2022-12-23T05:08:32.132Z,94.30
2022-12-23T05:10:33.563Z,93.88
2022-12-23T05:12:35.155Z,94.13
2022-12-23T05:14:36.621Z,94.16
2022-12-23T05:16:38.929Z,94.31
2022-12-23T05:18:40.357Z,94.12
2022-12-23T05:20:42.071Z,94.29
2022-12-23T05:22:43.457Z,94.17
2022-12-23T05:24:44.944Z,94.21
2022-12-23T05:26:51.829Z,94.38
2022-12-23T05:28:59.142Z,94.18
2022-12-23T05:31:02.303Z,94.23
2022-12-23T05:33:03.862Z,94.46
2022-12-23T05:35:06.665Z,94.09
2022-12-23T05:37:08.084Z,94.18
2022-12-23T05:39:09.844Z,94.69
2022-12-23T05:41:11.347Z,94.07
2022-12-23T05:43:12.746Z,94.47
2022-12-23T05:45:14.192Z,94.53
2022-12-23T05:47:15.656Z,94.34
2022-12-23T05:49:17.169Z,94.00
2022-12-23T05:51:18.510Z,94.62
2022-12-23T05:53:21.116Z,94.35
2022-12-23T05:55:22.497Z,94.24
2022-12-23T05:57:23.946Z,94.28
2022-12-23T05:59:31.655Z,94.51
2022-12-23T06:01:33.383Z,94.46
2022-12-23T06:03:35.136Z,94.42
2022-12-23T06:05:38.794Z,94.83
2022-12-23T06:07:40.558Z,94.99
2022-12-23T06:09:41.979Z,94.57
2022-12-23T06:11:43.382Z,95.08
2022-12-23T06:13:44.811Z,94.81
2022-12-23T06:15:46.718Z,94.54
2022-12-23T06:17:48.453Z,94.51
2022-12-23T06:19:49.907Z,94.76
2022-12-23T06:21:51.267Z,94.80
2022-12-23T06:23:52.803Z,94.49
2022-12-23T06:26:01.837Z,94.75
2022-12-23T06:28:03.504Z,94.38
2022-12-23T06:30:05.334Z,94.56
2022-12-23T06:32:06.921Z,94.24
2022-12-23T06:34:08.367Z,94.15
2022-12-23T06:36:10.238Z,93.94
2022-12-23T06:38:12.403Z,94.22
2022-12-23T06:40:14.095Z,94.18
2022-12-23T06:42:15.642Z,94.58
2022-12-23T06:44:17.574Z,94.61
2022-12-23T06:46:18.984Z,94.23
2022-12-23T06:48:20.444Z,94.49
2022-12-23T06:50:21.861Z,94.51
2022-12-23T06:52:23.312Z,94.26
2022-12-23T06:54:24.702Z,94.23
2022-12-23T06:56:26.463Z,94.33
2022-12-23T06:58:27.895Z,94.12
2022-12-23T07:00:29.399Z,94.00
2022-12-23T07:02:30.936Z,94.33
2022-12-23T07:04:32.408Z,93.82
2022-12-23T07:06:33.890Z,93.98
2022-12-23T07:08:35.330Z,93.96
2022-12-23T07:10:36.788Z,94.45
2022-12-23T07:12:38.523Z,94.48
2022-12-23T07:14:40.000Z,94.50
2022-12-23T07:16:41.608Z,94.49
2022-12-23T07:18:43.407Z,94.92
2022-12-23T07:20:44.793Z,94.57
2022-12-23T07:22:46.276Z,94.34
2022-12-23T07:24:47.662Z,94.35
2022-12-23T07:26:49.095Z,94.35
2022-12-23T07:28:50.550Z,94.56
2022-12-23T07:30:51.963Z,94.34
2022-12-23T07:32:53.746Z,94.40
2022-12-23T07:34:55.144Z,94.46
2022-12-23T07:36:56.655Z,94.76
2022-12-23T07:38:58.092Z,94.02
2022-12-23T07:40:59.543Z,94.55
2022-12-23T07:43:01.138Z,94.47
2022-12-23T07:45:02.623Z,94.31
2022-12-23T07:47:04.063Z,94.20
2022-12-23T07:49:05.527Z,93.95
2022-12-23T07:51:07.019Z,94.49
2022-12-23T07:53:08.783Z,94.37
2022-12-23T07:55:10.414Z,94.18
2022-12-23T07:57:11.780Z,93.99
2022-12-23T07:59:13.260Z,94.45
2022-12-23T08:01:15.071Z,93.91
2022-12-23T08:03:16.671Z,93.92
2022-12-23T08:05:18.623Z,94.14
2022-12-23T08:07:20.594Z,94.22
2022-12-23T08:09:22.697Z,94.03
2022-12-23T08:11:24.798Z,94.04
2022-12-23T08:13:27.344Z,94.11
2022-12-23T08:15:29.435Z,94.25
2022-12-23T08:17:31.223Z,94.14
2022-12-23T08:19:34.159Z,93.40
2022-12-23T08:21:36.240Z,93.19
2022-12-23T08:23:38.431Z,94.00
2022-12-23T08:25:40.390Z,93.97
2022-12-23T08:27:42.541Z,93.75
2022-12-23T08:29:44.586Z,93.83
2022-12-23T08:31:46.578Z,93.99
2022-12-23T08:33:51.037Z,93.81
2022-12-23T08:35:55.006Z,94.05
2022-12-23T08:37:57.048Z,93.69
2022-12-23T08:39:58.939Z,94.07
2022-12-23T08:42:01.185Z,93.56
2022-12-23T08:44:03.425Z,93.97
2022-12-23T08:46:06.156Z,93.67
2022-12-23T08:48:08.078Z,93.94
2022-12-23T08:50:12.218Z,93.53
2022-12-23T08:52:14.727Z,93.44
2022-12-23T08:54:17.749Z,93.90
2022-12-23T08:56:22.237Z,93.15
2022-12-23T08:58:24.167Z,93.12
2022-12-23T09:00:26.269Z,93.30
2022-12-23T09:02:28.260Z,93.08
2022-12-23T09:04:30.127Z,93.08
2022-12-23T09:06:35.769Z,93.13
2022-12-23T09:08:38.388Z,93.33
2022-12-23T09:10:44.196Z,93.00
2022-12-23T09:12:46.356Z,92.88
2022-12-23T09:14:48.567Z,92.99
2022-12-23T09:16:52.648Z,92.99
2022-12-23T09:18:54.827Z,92.85
2022-12-23T09:21:02.558Z,93.06
2022-12-23T09:23:05.017Z,93.08
2022-12-23T09:25:06.662Z,92.64
2022-12-23T09:27:08.203Z,93.01
2022-12-23T09:29:09.630Z,92.33
2022-12-23T09:31:37.608Z,92.66
2022-12-23T09:33:39.945Z,92.66
2022-12-23T09:35:41.592Z,93.00
2022-12-23T09:37:43.130Z,91.96
2022-12-23T09:39:44.526Z,92.50
2022-12-23T09:42:01.346Z,92.65
2022-12-23T09:44:14.922Z,92.28
2022-12-23T09:46:21.748Z,92.39
2022-12-23T09:48:27.913Z,92.53
2022-12-23T09:50:32.009Z,92.19
2022-12-23T09:53:00.418Z,92.40
2022-12-23T09:55:01.980Z,92.38
2022-12-23T09:57:16.394Z,92.61
2022-12-23T09:59:39.453Z,92.52
2022-12-23T10:01:48.967Z,93.02
2022-12-23T10:04:12.227Z,92.41
2022-12-23T10:06:22.520Z,92.64
2022-12-23T10:08:44.088Z,93.08
2022-12-23T10:10:50.992Z,91.93
2022-12-23T10:12:53.627Z,92.50
2022-12-23T10:14:57.153Z,92.37
2022-12-23T10:17:16.089Z,92.36
2022-12-23T10:19:27.715Z,92.10
2022-12-23T10:21:43.739Z,92.49
2022-12-23T10:23:52.390Z,92.60
2022-12-23T10:25:53.953Z,92.34
2022-12-23T10:27:55.530Z,92.06
2022-12-23T10:30:42.520Z,92.15
2022-12-23T10:33:02.383Z,92.02
2022-12-23T10:35:38.993Z,91.95
2022-12-23T10:37:52.655Z,91.82
2022-12-23T10:39:57.002Z,92.08
2022-12-23T10:42:28.498Z,92.10
2022-12-23T10:44:29.812Z,91.51
2022-12-23T10:46:50.533Z,91.75
2022-12-23T10:49:10.601Z,91.33
2022-12-23T10:51:36.664Z,92.47
2022-12-23T10:53:45.634Z,91.99
2022-12-23T10:55:50.094Z,92.06
2022-12-23T10:57:52.684Z,92.32
2022-12-23T10:59:54.090Z,91.73
2022-12-23T11:02:04.441Z,92.11
2022-12-23T11:04:17.831Z,92.43
2022-12-23T11:06:19.439Z,91.92
2022-12-23T11:08:23.005Z,91.84
2022-12-23T11:10:28.455Z,91.42
2022-12-23T11:12:48.473Z,90.74
2022-12-23T11:14:55.008Z,91.44
2022-12-23T11:16:56.593Z,91.16
2022-12-23T11:19:04.389Z,90.89
2022-12-23T11:21:06.792Z,91.84
2022-12-23T11:23:28.756Z,91.57
2022-12-23T11:25:41.553Z,91.76
2022-12-23T11:27:46.430Z,91.49
2022-12-23T11:29:54.603Z,91.92
2022-12-23T11:31:56.309Z,91.18
2022-12-23T11:34:02.045Z,91.14
2022-12-23T11:36:12.438Z,91.06
2022-12-23T11:38:14.611Z,90.80
2022-12-23T11:40:30.950Z,91.38
2022-12-23T11:42:34.375Z,90.87
2022-12-23T11:44:44.071Z,89.83
2022-12-23T11:46:45.581Z,90.67
2022-12-23T11:48:54.395Z,90.20
2022-12-23T11:51:01.569Z,90.30
2022-12-23T11:53:14.466Z,90.00
2022-12-23T11:55:29.668Z,91.27
2022-12-23T11:57:45.903Z,90.75
2022-12-23T11:59:49.825Z,91.11
2022-12-23T12:01:51.392Z,90.75
2022-12-23T12:04:00.108Z,90.32
2022-12-23T12:06:05.269Z,90.79
2022-12-23T12:08:11.695Z,90.82
2022-12-23T12:10:27.896Z,90.63
2022-12-23T12:12:30.293Z,90.89
2022-12-23T12:14:37.867Z,90.72
2022-12-23T12:16:57.663Z,91.06
2022-12-23T12:19:07.488Z,91.05
2022-12-23T12:21:21.218Z,90.82
2022-12-23T12:23:29.312Z,90.12
2022-12-23T12:25:32.969Z,90.96
2022-12-23T12:27:39.436Z,90.85
2022-12-23T12:29:50.709Z,91.07
2022-12-23T12:31:55.010Z,90.84
2022-12-23T12:34:20.525Z,90.36
2022-12-23T12:36:24.791Z,91.42
2022-12-23T12:38:32.555Z,90.16
2022-12-23T12:40:42.410Z,91.27
2022-12-23T12:42:55.505Z,90.78
2022-12-23T12:45:15.908Z,91.23
2022-12-23T12:47:59.913Z,91.10
2022-12-23T12:50:19.792Z,90.66
2022-12-23T12:52:24.211Z,90.91
2022-12-23T12:54:32.358Z,91.95
2022-12-23T12:56:45.643Z,91.89
2022-12-23T12:58:47.059Z,91.85
2022-12-23T13:01:14.423Z,91.52
2022-12-23T13:03:28.803Z,91.33
2022-12-23T13:05:54.405Z,91.12
2022-12-23T13:08:33.089Z,91.10
2022-12-23T13:10:43.309Z,91.59
2022-12-23T13:12:47.587Z,91.30
2022-12-23T13:14:55.061Z,91.83
2022-12-23T13:17:17.876Z,90.38
2022-12-23T13:19:30.921Z,90.74
2022-12-23T13:21:42.421Z,91.18
2022-12-23T13:24:04.328Z,90.36
2022-12-23T13:26:18.432Z,91.33
2022-12-23T13:28:32.144Z,91.57
2022-12-23T13:30:45.767Z,91.11
2022-12-23T13:32:53.288Z,91.09
2022-12-23T13:34:59.913Z,90.96
2022-12-23T13:37:29.154Z,91.77
2022-12-23T13:39:56.848Z,91.13
2022-12-23T13:42:05.690Z,92.04
2022-12-23T13:44:13.534Z,91.20
2022-12-23T13:46:25.565Z,92.01
2022-12-23T13:48:40.607Z,91.39
2022-12-23T13:51:21.302Z,91.75
2022-12-23T13:54:11.040Z,92.22
2022-12-23T13:56:23.871Z,91.84
2022-12-23T13:58:28.253Z,92.08
2022-12-23T14:00:34.387Z,92.27
2022-12-23T14:02:35.860Z,91.35
2022-12-23T14:04:58.591Z,91.69
2022-12-23T14:07:03.514Z,91.51
2022-12-23T14:09:04.943Z,91.07
2022-12-23T14:11:19.281Z,91.70
2022-12-23T14:13:24.298Z,91.77
2022-12-23T14:15:31.568Z,91.59
2022-12-23T14:17:51.855Z,92.15
2022-12-23T14:20:24.648Z,92.25
2022-12-23T14:23:05.071Z,91.72
2022-12-23T14:25:35.841Z,92.15
2022-12-23T14:27:49.031Z,91.90
2022-12-23T14:30:10.404Z,91.70
2022-12-23T14:32:27.876Z,91.59
2022-12-23T14:34:32.973Z,91.58
2022-12-23T14:36:34.621Z,91.81
2022-12-23T14:38:36.178Z,91.75
2022-12-23T14:40:37.563Z,92.19
2022-12-23T14:42:43.584Z,92.03
2022-12-23T14:44:50.209Z,92.25
2022-12-23T14:46:54.947Z,92.32
2022-12-23T14:49:22.510Z,91.73
2022-12-23T14:51:32.708Z,92.14
2022-12-23T14:53:35.656Z,92.26
2022-12-23T14:55:40.267Z,92.64
2022-12-23T14:57:43.013Z,92.73
2022-12-23T15:00:08.846Z,92.77
2022-12-23T15:02:16.119Z,92.27
2022-12-23T15:04:25.985Z,92.67
2022-12-23T15:06:28.425Z,92.20
2022-12-23T15:08:36.280Z,91.91
2022-12-23T15:10:38.349Z,92.29
2022-12-23T15:12:42.508Z,92.28
2022-12-23T15:14:54.195Z,92.56
2022-12-23T15:16:55.719Z,92.75
2022-12-23T15:19:00.006Z,92.82
2022-12-23T15:21:04.367Z,92.71
2022-12-23T15:23:16.872Z,93.11
2022-12-23T15:25:27.550Z,92.94
2022-12-23T15:27:35.122Z,93.06
2022-12-23T15:29:36.681Z,92.76
2022-12-23T15:31:42.305Z,92.86
2022-12-23T15:34:03.926Z,92.78
2022-12-23T15:36:07.575Z,93.17
2022-12-23T15:38:16.137Z,92.95
2022-12-23T15:40:24.760Z,93.46
2022-12-23T15:42:31.257Z,92.91
2022-12-23T15:44:38.818Z,93.77
2022-12-23T15:46:41.046Z,93.23
2022-12-23T15:48:43.300Z,93.35
2022-12-23T15:50:44.703Z,93.55
2022-12-23T15:52:48.794Z,93.15
2022-12-23T15:54:57.335Z,93.10
2022-12-23T15:57:00.997Z,93.10
2022-12-23T15:59:03.553Z,93.82
2022-12-23T16:01:31.661Z,93.71
2022-12-23T16:03:40.341Z,94.01
2022-12-23T16:05:43.016Z,93.67
2022-12-23T16:07:44.669Z,93.53
2022-12-23T16:09:46.307Z,93.56
2022-12-23T16:11:51.104Z,93.93
2022-12-23T16:14:19.973Z,94.63
2022-12-23T16:16:43.480Z,94.92
2022-12-23T16:18:47.555Z,94.85
2022-12-23T16:21:04.244Z,95.19
2022-12-23T16:23:05.954Z,95.16
2022-12-23T16:25:31.112Z,95.74
2022-12-23T16:27:43.320Z,95.07
2022-12-23T16:29:48.672Z,96.02
2022-12-23T16:31:54.452Z,96.06
2022-12-23T16:34:07.000Z,96.54
2022-12-23T16:36:15.346Z,97.12
2022-12-23T16:38:22.164Z,96.30
2022-12-23T16:40:24.458Z,97.28
2022-12-23T16:42:25.839Z,97.33
2022-12-23T16:44:27.229Z,96.59
2022-12-23T16:46:34.089Z,97.55
2022-12-23T16:48:37.173Z,97.58
2022-12-23T16:50:38.775Z,97.01
2022-12-23T16:52:40.428Z,97.55
2022-12-23T16:54:42.492Z,97.22
2022-12-23T16:56:46.752Z,96.86
2022-12-23T16:58:48.533Z,97.75
2022-12-23T17:00:51.180Z,97.08
2022-12-23T17:02:52.741Z,97.08
2022-12-23T17:05:00.521Z,97.67
2022-12-23T17:07:02.018Z,97.02
2022-12-23T17:09:05.594Z,97.13
2022-12-23T17:11:17.771Z,97.03
2022-12-23T17:13:19.398Z,97.51
2022-12-23T17:15:25.180Z,97.35
2022-12-23T17:17:26.565Z,96.72
2022-12-23T17:19:28.912Z,96.28
2022-12-23T17:21:39.020Z,96.32
2022-12-23T17:23:40.431Z,96.20
2022-12-23T17:25:41.817Z,96.23
2022-12-23T17:27:44.888Z,95.81
2022-12-23T17:29:46.550Z,95.79
2022-12-23T17:31:48.810Z,95.80
2022-12-23T17:33:50.242Z,95.80
2022-12-23T17:35:51.691Z,95.11
2022-12-23T17:37:53.469Z,95.56
2022-12-23T17:39:54.893Z,94.39
2022-12-23T17:41:56.371Z,94.25
2022-12-23T17:43:58.225Z,93.51
2022-12-23T17:45:59.690Z,93.96
2022-12-23T17:48:01.146Z,93.63
2022-12-23T17:50:02.552Z,92.05
2022-12-23T17:52:06.407Z,92.92
2022-12-23T17:54:20.593Z,93.03
2022-12-23T17:56:22.546Z,93.53
2022-12-23T17:58:23.955Z,92.75
2022-12-23T18:00:33.852Z,93.16
2022-12-23T18:02:38.217Z,93.18
2022-12-23T18:04:39.718Z,92.92
2022-12-23T18:06:41.271Z,92.46
2022-12-23T18:08:42.722Z,92.74
2022-12-23T18:10:45.522Z,92.23
2022-12-23T18:12:51.615Z,92.16
2022-12-23T18:14:53.247Z,92.13
2022-12-23T18:16:54.919Z,92.36
2022-12-23T18:18:56.631Z,91.83
2022-12-23T18:20:59.017Z,92.15
2022-12-23T18:23:01.891Z,92.09
2022-12-23T18:25:03.975Z,91.96
2022-12-23T18:27:13.259Z,90.42
2022-12-23T18:29:15.091Z,91.39
2022-12-23T18:31:19.676Z,90.86
2022-12-23T18:33:21.384Z,90.97
2022-12-23T18:35:35.851Z,91.27
2022-12-23T18:37:37.591Z,91.77
2022-12-23T18:39:39.440Z,91.81
2022-12-23T18:41:40.874Z,91.26
2022-12-23T18:43:42.383Z,91.21
2022-12-23T18:45:50.667Z,91.99
2022-12-23T18:47:54.124Z,91.60
2022-12-23T18:49:56.025Z,90.64
2022-12-23T18:51:57.391Z,90.89
2022-12-23T18:53:59.081Z,90.97
2022-12-23T18:56:00.698Z,91.44
2022-12-23T18:58:02.530Z,91.42
2022-12-23T19:00:12.688Z,91.66
2022-12-23T19:02:15.104Z,90.84
2022-12-23T19:04:16.672Z,91.52
2022-12-23T19:06:18.116Z,90.75
2022-12-23T19:08:26.140Z,90.95
2022-12-23T19:10:33.148Z,91.06
2022-12-23T19:12:34.625Z,90.06
2022-12-23T19:14:39.761Z,89.97
2022-12-23T19:16:46.070Z,89.93
2022-12-23T19:18:50.989Z,89.32
2022-12-23T19:20:52.393Z,89.20
2022-12-23T19:22:53.903Z,89.76
2022-12-23T19:25:05.378Z,89.91
2022-12-23T19:27:07.539Z,88.89
2022-12-23T19:29:09.286Z,89.47
2022-12-23T19:31:13.009Z,89.53
2022-12-23T19:33:14.631Z,89.52
2022-12-23T19:35:16.622Z,90.51
2022-12-23T19:37:18.711Z,89.83
2022-12-23T19:39:21.994Z,90.11
2022-12-23T19:41:24.518Z,89.65
2022-12-23T19:43:26.472Z,89.71
2022-12-23T19:45:27.909Z,89.46
2022-12-23T19:47:29.675Z,89.14
2022-12-23T19:49:31.515Z,88.88
2022-12-23T19:53:59.044Z,89.29
2022-12-23T19:56:02.871Z,88.91
2022-12-23T19:58:05.023Z,89.08
2022-12-23T20:00:08.220Z,89.17
2022-12-23T20:02:18.340Z,89.19
2022-12-23T20:04:20.330Z,89.21
2022-12-23T20:06:27.909Z,90.11
2022-12-23T20:08:30.349Z,90.16
2022-12-23T20:10:32.177Z,89.42
2022-12-23T20:12:33.636Z,89.20
2022-12-23T20:14:35.363Z,89.55
2022-12-23T20:16:39.082Z,90.24
2022-12-23T20:18:40.658Z,89.70
2022-12-23T20:20:44.281Z,90.03
2022-12-23T20:22:45.811Z,89.72
2022-12-23T20:24:47.727Z,89.23
2022-12-23T20:26:52.085Z,89.24
2022-12-23T20:29:01.416Z,89.16
2022-12-23T20:31:18.090Z,88.33
2022-12-23T20:33:23.544Z,89.43
2022-12-23T20:35:30.227Z,89.89
2022-12-23T20:37:35.383Z,88.48
2022-12-23T20:39:38.335Z,87.78
2022-12-23T20:41:39.793Z,88.37
2022-12-23T20:43:42.597Z,89.16
2022-12-23T20:45:46.451Z,88.00
2022-12-23T20:47:48.471Z,89.07
2022-12-23T20:49:53.797Z,90.25
2022-12-23T20:51:55.979Z,89.60
2022-12-23T20:54:01.147Z,90.78
2022-12-23T20:56:04.869Z,89.77
2022-12-23T20:58:25.435Z,90.56
2022-12-23T21:00:31.104Z,90.50
2022-12-23T21:02:36.257Z,90.67
2022-12-23T21:04:38.572Z,89.65
2022-12-23T21:06:40.293Z,89.65
2022-12-23T21:08:43.358Z,90.05
2022-12-23T21:10:53.497Z,90.48
2022-12-23T21:12:55.035Z,90.16
2022-12-23T21:14:56.614Z,90.84
2022-12-23T21:16:58.066Z,88.70
2022-12-23T21:19:00.432Z,89.63
2022-12-23T21:21:04.114Z,89.33
2022-12-23T21:23:05.825Z,89.63
2022-12-23T21:25:07.539Z,88.50
2022-12-23T21:27:09.716Z,88.33
2022-12-23T21:29:17.144Z,88.96
2022-12-23T21:31:56.665Z,89.18
2022-12-23T21:33:58.630Z,88.75
2022-12-23T21:36:00.044Z,88.92
2022-12-23T21:38:01.544Z,89.28
2022-12-23T21:40:03.035Z,89.69
2022-12-23T21:42:04.561Z,89.14
2022-12-23T21:44:06.008Z,89.06
2022-12-23T21:46:10.863Z,89.05
2022-12-23T21:48:12.286Z,90.03
2022-12-23T21:50:13.705Z,89.62
2022-12-23T21:52:15.121Z,88.69
2022-12-23T21:54:16.528Z,89.98
2022-12-23T21:56:21.373Z,90.68
2022-12-23T21:58:22.922Z,91.52
2022-12-23T22:00:24.425Z,91.74
2022-12-23T22:02:25.866Z,91.14
2022-12-23T22:04:27.263Z,90.70
2022-12-23T22:06:31.884Z,90.33
2022-12-23T22:08:33.830Z,91.20
2022-12-23T22:10:38.377Z,91.10
2022-12-23T22:12:39.808Z,90.69
2022-12-23T22:14:41.203Z,90.92
2022-12-23T22:16:42.952Z,90.41
2022-12-23T22:18:44.954Z,91.08
2022-12-23T22:20:46.679Z,90.48
2022-12-23T22:22:48.563Z,90.28
2022-12-23T22:24:49.960Z,90.80
2022-12-23T22:26:51.365Z,90.79
2022-12-23T22:28:55.469Z,90.25
2022-12-23T22:31:27.343Z,91.50
2022-12-23T22:33:28.782Z,90.09
2022-12-23T22:35:30.712Z,90.04
2022-12-23T22:37:32.065Z,89.67
2022-12-23T22:39:33.438Z,90.40
2022-12-23T22:41:35.226Z,89.82
2022-12-23T22:43:37.001Z,90.18
2022-12-23T22:45:38.537Z,89.67
2022-12-23T22:47:40.051Z,89.51
2022-12-23T22:49:41.503Z,89.04
2022-12-23T22:51:44.205Z,88.91
2022-12-23T22:53:46.019Z,88.68
2022-12-23T22:55:56.881Z,88.55
2022-12-23T22:57:58.251Z,88.33
2022-12-23T23:00:00.755Z,89.40
2022-12-23T23:02:04.969Z,88.85
2022-12-23T23:04:07.816Z,89.95
2022-12-23T23:06:10.103Z,88.82
2022-12-23T23:08:14.445Z,89.39
2022-12-23T23:10:15.978Z,90.06
2022-12-23T23:12:17.513Z,89.60
2022-12-23T23:14:20.151Z,89.15
2022-12-23T23:16:22.764Z,89.79
2022-12-23T23:18:25.574Z,88.92
2022-12-23T23:20:26.937Z,89.26
2022-12-23T23:25:47.603Z,88.31
2022-12-23T23:27:49.071Z,88.98
2022-12-23T23:29:50.442Z,88.08
2022-12-23T23:31:51.841Z,88.29
2022-12-23T23:33:53.401Z,88.16
2022-12-23T23:35:56.581Z,87.61
2022-12-23T23:37:58.175Z,88.00
2022-12-23T23:39:59.583Z,87.17
2022-12-23T23:42:01.158Z,86.58
2022-12-23T23:44:02.566Z,86.88
2022-12-23T23:46:04.133Z,87.06
2022-12-23T23:48:06.875Z,85.78
2022-12-23T23:50:08.605Z,85.98
2022-12-23T23:52:10.009Z,86.69
2022-12-23T23:54:11.482Z,87.53
2022-12-23T23:56:12.964Z,86.03
2022-12-23T23:58:14.370Z,85.98
